createdAt,value
2023-02-03T00:01:09.633Z,0.00
2023-02-03T00:11:19.031Z,0.00
2023-02-03T00:21:29.025Z,0.00
2023-02-03T00:31:38.532Z,0.00
2023-02-03T00:41:48.423Z,0.00
2023-02-03T00:51:58.059Z,0.00
2023-02-03T01:02:06.864Z,0.00
2023-02-03T01:12:16.500Z,0.00
2023-02-03T01:22:26.300Z,0.00
2023-02-03T01:32:35.961Z,0.00
2023-02-03T01:42:45.138Z,0.00
2023-02-03T01:52:54.472Z,0.00
2023-02-03T02:03:03.736Z,0.00
2023-02-03T02:13:12.575Z,0.00
2023-02-03T02:23:21.608Z,0.00
2023-02-03T02:33:31.930Z,0.00
2023-02-03T02:43:41.105Z,0.00
2023-02-03T02:53:50.169Z,0.00
2023-02-03T03:04:00.740Z,0.00
2023-02-03T03:14:09.818Z,0.00
2023-02-03T03:24:19.712Z,0.00
2023-02-03T03:34:28.972Z,0.00
2023-02-03T03:44:38.695Z,0.00
2023-02-03T03:54:47.718Z,0.00
2023-02-03T04:04:57.394Z,0.00
2023-02-03T04:15:07.187Z,0.00
2023-02-03T04:25:16.798Z,0.00
2023-02-03T04:35:26.340Z,0.00
2023-02-03T04:45:36.148Z,0.00
2023-02-03T04:55:45.759Z,0.00
2023-02-03T05:05:55.468Z,0.00
2023-02-03T05:16:05.164Z,0.00
2023-02-03T05:26:15.136Z,0.00
2023-02-03T05:36:23.721Z,0.00
2023-02-03T05:46:33.203Z,0.00
2023-02-03T05:56:43.005Z,0.00
2023-02-03T06:06:52.835Z,0.00
2023-02-03T06:17:01.552Z,0.00
2023-02-03T06:27:11.635Z,0.00
2023-02-03T06:37:21.904Z,0.00
2023-02-03T06:47:32.812Z,0.00
2023-02-03T06:57:42.640Z,4.00
2023-02-03T07:07:51.642Z,4.00
2023-02-03T07:18:01.255Z,4.00
2023-02-03T07:28:11.090Z,8.00
2023-02-03T07:38:20.525Z,12.00
2023-02-03T07:48:29.096Z,16.00
2023-02-03T07:58:38.367Z,16.00
2023-02-03T08:08:46.799Z,24.00
2023-02-03T08:18:55.925Z,16.00
2023-02-03T08:29:05.160Z,20.00
2023-02-03T08:39:13.009Z,16.00
2023-02-03T08:49:22.736Z,24.00
2023-02-03T08:59:32.299Z,16.00
2023-02-03T09:09:41.498Z,28.00
2023-02-03T09:19:50.971Z,16.00
2023-02-03T09:30:00.793Z,20.00
2023-02-03T09:40:10.678Z,20.00
2023-02-03T09:50:20.698Z,20.00
2023-02-03T10:00:30.421Z,24.00
2023-02-03T10:10:40.458Z,20.00
2023-02-03T10:20:50.292Z,32.00
2023-02-03T10:31:00.025Z,32.00
2023-02-03T10:41:10.177Z,8.00
2023-02-03T10:51:20.140Z,32.00
2023-02-03T11:01:29.732Z,76.00
2023-02-03T11:11:39.585Z,56.00
2023-02-03T11:21:49.287Z,76.00
2023-02-03T11:31:59.065Z,80.00
2023-02-03T11:42:09.571Z,12.00
